Time;durP1;ratioP1;P1;durP2;ratioP2;P2;SDS_P1;SDS_P2;PMS_P1;PMS_P2;Temp;Humidity;BMP_temperature;BMP_pressure;BME280_temperature;BME280_humidity;BME280_pressure;Samples;Min_cycle;Max_cycle;Signal;HPM_P1;HPM_P2
2023/02/05 00:02:17;;;;;;;10.82;5.20;;;;;;;1.96;67.55;100167.66;5079622;28;20570;-57
2023/02/05 00:04:43;;;;;;;11.02;5.85;;;;;;;1.96;67.69;100165.09;5072396;28;20037;-56
2023/02/05 00:07:09;;;;;;;10.82;5.55;;;;;;;1.88;67.45;100153.06;5079071;28;20444;-56
2023/02/05 00:09:35;;;;;;;10.40;5.93;;;;;;;1.90;67.38;100166.72;5072035;28;20427;-54
2023/02/05 00:12:01;;;;;;;11.45;6.13;;;;;;;1.92;67.74;100165.91;5073126;28;20127;-55
2023/02/05 00:14:27;;;;;;;13.55;7.00;;;;;;;1.91;67.57;100166.75;5084020;28;20457;-55
2023/02/05 00:16:53;;;;;;;13.50;6.78;;;;;;;1.89;67.74;100160.75;5092476;28;20043;-58
2023/02/05 00:19:19;;;;;;;13.13;6.95;;;;;;;1.72;67.83;100139.25;5091633;28;20036;-56
2023/02/05 00:21:45;;;;;;;12.90;7.85;;;;;;;1.63;67.98;100118.66;5076426;28;20229;-60
2023/02/05 00:24:11;;;;;;;12.80;7.70;;;;;;;1.86;67.62;100163.28;5086666;28;20084;-58
2023/02/05 00:26:37;;;;;;;12.20;7.20;;;;;;;1.47;67.80;100101.44;5092459;28;20044;-60
2023/02/05 00:29:03;;;;;;;12.13;6.57;;;;;;;1.53;67.95;100107.47;5092358;28;20046;-55
2023/02/05 00:31:29;;;;;;;13.35;7.50;;;;;;;1.85;67.81;100164.13;5070064;28;20040;-57
2023/02/05 00:33:56;;;;;;;13.23;6.95;;;;;;;1.84;67.82;100171.81;5071620;28;20064;-56
2023/02/05 00:36:23;;;;;;;13.30;7.00;;;;;;;1.85;67.98;100173.53;5075627;28;20069;-57
2023/02/05 00:38:49;;;;;;;14.02;8.02;;;;;;;1.85;67.80;100173.53;5090326;28;20096;-58
2023/02/05 00:41:15;;;;;;;11.13;6.18;;;;;;;1.82;67.61;100176.06;5088195;28;20044;-57
2023/02/05 00:43:42;;;;;;;10.50;5.75;;;;;;;1.82;67.71;100182.06;5092045;28;20559;-58
2023/02/05 00:46:09;;;;;;;11.48;5.47;;;;;;;1.79;67.22;100184.59;5089362;28;20047;-54
2023/02/05 00:48:35;;;;;;;9.00;5.13;;;;;;;1.56;67.27;100140.81;5071889;28;20573;-57
2023/02/05 00:51:01;;;;;;;9.43;5.60;;;;;;;1.79;67.29;100176.03;5077102;28;20044;-61
2023/02/05 00:53:28;;;;;;;14.23;6.90;;;;;;;1.79;67.16;100176.03;5088313;28;20040;-53
2023/02/05 00:55:53;;;;;;;13.43;7.75;;;;;;;1.79;67.14;100176.03;5084630;28;20037;-54
2023/02/05 00:58:19;;;;;;;13.98;7.70;;;;;;;1.80;67.08;100178.63;5071222;28;20048;-57
2023/02/05 01:00:46;;;;;;;9.60;5.45;;;;;;;1.79;67.14;100176.03;5086773;28;20098;-60
2023/02/05 01:03:12;;;;;;;9.35;5.07;;;;;;;1.77;67.42;100182.88;5070038;28;20072;-59
2023/02/05 01:05:39;;;;;;;8.70;4.88;;;;;;;1.74;66.93;100191.38;5074233;28;20040;-55
2023/02/05 01:08:06;;;;;;;10.05;5.43;;;;;;;1.73;67.11;100181.13;5083344;28;20043;-57
2023/02/05 01:10:34;;;;;;;11.85;6.32;;;;;;;1.74;66.92;100187.94;5088929;28;20076;-55
2023/02/05 01:13:00;;;;;;;13.48;6.22;;;;;;;1.71;67.00;100186.22;5069903;28;20481;-58
2023/02/05 01:15:25;;;;;;;14.02;7.80;;;;;;;1.69;67.06;100188.78;5060078;28;20072;-58
2023/02/05 01:17:52;;;;;;;10.55;5.78;;;;;;;1.70;67.02;100187.06;5091112;28;20440;-56
2023/02/05 01:20:19;;;;;;;11.40;6.25;;;;;;;1.69;67.02;100185.34;5068498;28;20074;-56
2023/02/05 01:22:45;;;;;;;10.70;5.60;;;;;;;1.66;67.08;100183.63;5056341;28;20106;-57
2023/02/05 01:25:11;;;;;;;11.50;5.95;;;;;;;1.70;66.73;100190.50;5069616;28;20040;-60
2023/02/05 01:27:38;;;;;;;17.15;7.57;;;;;;;1.68;67.03;100192.16;5069496;28;20478;-57
2023/02/05 01:30:05;;;;;;;15.18;8.93;;;;;;;1.67;66.97;100190.44;5086727;28;20221;-57
2023/02/05 01:32:31;;;;;;;16.73;9.88;;;;;;;1.65;66.52;100191.28;5073820;28;20044;-58
2023/02/05 01:34:57;;;;;;;20.15;13.15;;;;;;;1.55;67.17;100182.66;5088832;28;20051;-59
2023/02/05 01:37:24;;;;;;;15.63;8.50;;;;;;;1.57;66.95;100204.00;5088785;28;20442;-56
2023/02/05 01:39:50;;;;;;;13.38;6.80;;;;;;;1.54;67.26;100204.00;5068928;28;20067;-58
2023/02/05 01:42:20;;;;;;;11.23;5.68;;;;;;;1.54;67.20;100205.69;5069286;28;20048;-58
2023/02/05 01:45:31;;;;;;;11.52;6.30;;;;;;;1.51;67.53;100210.81;5070775;28;20036;-56
2023/02/05 01:48:01;;;;;;;14.20;6.88;;;;;;;1.49;67.14;100205.66;5070661;28;20024;-59
2023/02/05 01:50:33;;;;;;;14.05;7.05;;;;;;;1.47;67.33;100204.75;5081887;28;20028;-58
2023/02/05 01:53:03;;;;;;;11.13;5.82;;;;;;;1.45;67.30;100198.78;5084157;28;20813;-56
2023/02/05 01:55:29;;;;;;;8.70;5.10;;;;;;;1.44;66.81;100199.63;5084747;28;20071;-58
2023/02/05 01:57:55;;;;;;;9.63;4.30;;;;;;;1.40;66.94;100205.56;5089318;28;20040;-56
2023/02/05 02:00:22;;;;;;;6.78;3.90;;;;;;;1.16;66.85;100164.31;5089142;28;20043;-58
2023/02/05 02:02:48;;;;;;;9.32;4.28;;;;;;;1.39;66.62;100205.53;5051563;28;20032;-55
2023/02/05 02:05:16;;;;;;;10.20;4.43;;;;;;;1.39;66.63;100216.66;5068755;28;20051;-60
2023/02/05 02:07:42;;;;;;;8.40;4.72;;;;;;;1.25;66.82;100193.47;5069694;28;20044;-59
2023/02/05 02:10:09;;;;;;;11.68;5.40;;;;;;;1.40;66.91;100218.38;5090147;28;20113;-56
2023/02/05 02:12:38;;;;;;;8.60;5.07;;;;;;;1.45;67.02;100224.41;5072414;28;20040;-59
2023/02/05 02:15:10;;;;;;;9.37;4.20;;;;;;;1.45;66.96;100223.53;5074641;28;20117;-55
2023/02/05 02:17:39;;;;;;;10.55;5.22;;;;;;;1.47;66.84;100220.13;5060399;28;20039;-58
2023/02/05 02:20:12;;;;;;;8.13;4.70;;;;;;;1.32;66.62;100196.91;5087986;28;20461;-55
2023/02/05 02:22:56;;;;;;;8.32;4.45;;;;;;;1.48;66.76;100226.13;5054693;28;20044;-55
2023/02/05 02:25:33;;;;;;;12.18;4.95;;;;;;;1.43;66.89;100220.97;5089803;28;20400;-59
2023/02/05 02:28:05;;;;;;;9.27;4.32;;;;;;;1.41;66.59;100227.78;5071862;28;20093;-55
2023/02/05 02:30:38;;;;;;;7.95;4.20;;;;;;;1.39;66.97;100231.16;5080516;28;20262;-59
2023/02/05 02:33:27;;;;;;;7.55;4.10;;;;;;;1.37;66.94;100232.81;5082225;28;20047;-55
2023/02/05 02:36:04;;;;;;;8.27;4.40;;;;;;;1.34;67.09;100232.81;5071639;28;20044;-56
2023/02/05 02:38:54;;;;;;;7.57;4.43;;;;;;;1.38;67.23;100229.44;5063647;28;20044;-58
2023/02/05 02:41:37;;;;;;;9.05;4.60;;;;;;;1.28;67.67;100210.53;5084799;28;20106;-56
2023/02/05 02:44:11;;;;;;;8.35;4.25;;;;;;;1.33;67.55;100231.94;5068100;28;20484;-57
2023/02/05 02:46:39;;;;;;;9.00;4.40;;;;;;;1.16;67.68;100197.59;5060602;28;20094;-56
2023/02/05 02:49:08;;;;;;;8.07;4.38;;;;;;;1.32;67.88;100229.34;5086873;28;20047;-57
2023/02/05 02:51:37;;;;;;;8.50;4.32;;;;;;;1.31;67.82;100225.09;5068529;28;20044;-58
2023/02/05 02:54:06;;;;;;;7.60;4.00;;;;;;;1.35;67.66;100230.28;5070548;28;20051;-55
2023/02/05 02:56:36;;;;;;;7.32;3.97;;;;;;;1.39;67.37;100231.16;5071312;28;20129;-57
2023/02/05 02:59:03;;;;;;;;;;;;;;;1.40;67.10;100228.63;5071320;28;20036;-60
2023/02/05 03:01:32;;;;;;;9.40;4.68;;;;;;;1.37;67.50;100240.50;5050456;28;19970;-57
2023/02/05 03:04:01;;;;;;;7.53;4.25;;;;;;;1.18;67.18;100213.84;5079291;28;20482;-59
2023/02/05 03:06:27;;;;;;;;;;;;;;;1.37;67.35;100245.63;5088529;28;20050;-58
2023/02/05 03:09:08;;;;;;;8.43;3.95;;;;;;;1.35;67.22;100235.41;5080376;28;19917;-56
2023/02/05 03:11:33;;;;;;;7.55;4.40;;;;;;;1.36;67.02;100238.81;5067600;28;20044;-54
2023/02/05 03:14:00;;;;;;;8.43;4.72;;;;;;;1.05;66.81;100194.03;5084389;28;20411;-58
2023/02/05 03:16:30;;;;;;;10.48;4.78;;;;;;;1.38;66.87;100244.81;5079841;28;20066;-59
2023/02/05 03:18:57;;;;;;;13.32;4.78;;;;;;;1.39;66.79;100241.41;5069859;28;20040;-58
2023/02/05 03:21:29;;;;;;;10.68;4.90;;;;;;;1.39;66.88;100249.94;5070861;28;20048;-58
2023/02/05 03:23:55;;;;;;;8.68;4.72;;;;;;;1.38;66.72;100239.69;5049599;28;20060;-53
2023/02/05 03:26:34;;;;;;;10.32;4.95;;;;;;;1.39;66.83;100246.53;5050209;28;20075;-56
2023/02/05 03:29:15;;;;;;;7.68;3.85;;;;;;;1.37;66.55;100243.94;5067278;28;20040;-55
2023/02/05 03:32:07;;;;;;;7.82;4.22;;;;;;;1.34;66.06;100245.63;5057542;28;20059;-56
2023/02/05 03:34:36;;;;;;;8.65;3.88;;;;;;;1.30;65.81;100243.88;5085961;28;20208;-57
2023/02/05 03:37:22;;;;;;;8.32;4.75;;;;;;;1.30;65.78;100254.13;5067738;28;20504;-57
2023/02/05 03:40:00;;;;;;;7.93;4.18;;;;;;;1.14;65.83;100224.91;5086942;28;20092;-55
2023/02/05 03:42:46;;;;;;;8.45;4.00;;;;;;;1.27;65.30;100247.25;5050979;28;20501;-55
2023/02/05 03:45:32;;;;;;;9.48;4.32;;;;;;;1.19;65.29;100244.59;5062136;28;20052;-54
2023/02/05 03:48:08;;;;;;;8.23;4.43;;;;;;;1.14;65.19;100246.25;5067282;28;20424;-55
2023/02/05 03:50:37;;;;;;;8.95;4.55;;;;;;;1.09;65.61;100247.88;5067313;28;20559;-55
2023/02/05 03:53:12;;;;;;;7.53;4.28;;;;;;;1.01;65.39;100246.91;5076238;28;20048;-55
2023/02/05 03:55:42;;;;;;;8.02;4.40;;;;;;;0.94;65.27;100245.13;5077552;28;20560;-54
2023/02/05 03:58:17;;;;;;;7.55;4.32;;;;;;;0.88;65.40;100250.16;5067172;28;20040;-57
2023/02/05 04:00:44;;;;;;;9.23;4.38;;;;;;;0.62;65.57;100219.09;5051741;28;20052;-58
2023/02/05 04:03:12;;;;;;;8.65;4.63;;;;;;;0.70;65.59;100242.22;5033922;28;20153;-56
2023/02/05 04:05:38;;;;;;;8.68;4.85;;;;;;;0.67;65.51;100250.72;5067233;28;20427;-54
2023/02/05 04:08:05;;;;;;;10.68;4.93;;;;;;;0.64;65.82;100255.78;5068395;28;20048;-53
2023/02/05 04:10:37;;;;;;;9.80;5.30;;;;;;;0.59;65.90;100262.53;5079653;28;20059;-54
2023/02/05 04:13:05;;;;;;;10.70;5.38;;;;;;;0.24;65.95;100199.75;5074671;28;20054;-56
2023/02/05 04:15:32;;;;;;;13.20;4.72;;;;;;;0.54;65.91;100265.84;5093893;28;20050;-50
2023/02/05 04:18:00;;;;;;;10.65;4.75;;;;;;;0.52;65.84;100262.44;5073221;28;20143;-55
2023/02/05 04:20:28;;;;;;;8.35;4.85;;;;;;;0.44;65.83;100259.75;5050121;28;20411;-56
2023/02/05 04:22:54;;;;;;;10.95;4.60;;;;;;;0.47;66.53;100269.19;5050144;28;20044;-54
2023/02/05 04:25:21;;;;;;;9.85;4.88;;;;;;;0.42;66.20;100264.81;5077889;28;20574;-58
2023/02/05 04:27:50;;;;;;;8.23;4.85;;;;;;;0.36;65.94;100274.13;5086975;28;20581;-56
2023/02/05 04:30:16;;;;;;;9.32;4.97;;;;;;;0.29;66.13;100279.97;5085496;28;20040;-57
2023/02/05 04:32:45;;;;;;;13.77;5.87;;;;;;;0.27;66.08;100282.47;5087088;28;20048;-55
2023/02/05 04:35:13;;;;;;;13.93;6.22;;;;;;;0.26;66.22;100290.16;5075664;28;20290;-51
2023/02/05 04:37:39;;;;;;;13.18;6.05;;;;;;;0.05;65.87;100262.53;5067002;28;20048;-54
2023/02/05 04:40:06;;;;;;;14.27;6.63;;;;;;;0.15;66.31;100289.09;5056684;28;20045;-57
2023/02/05 04:42:32;;;;;;;12.10;6.20;;;;;;;0.19;66.09;100285.75;5071704;28;20460;-55
2023/02/05 04:44:58;;;;;;;13.52;6.53;;;;;;;0.20;66.63;100287.50;5077574;28;20036;-57
2023/02/05 04:47:24;;;;;;;15.95;7.57;;;;;;;0.25;66.33;100291.84;5091882;28;20665;-60
2023/02/05 04:49:50;;;;;;;12.50;6.28;;;;;;;0.33;66.43;100297.94;5091115;28;20134;-55
2023/02/05 04:52:16;;;;;;;11.73;5.90;;;;;;;0.15;66.79;100269.53;5091917;28;20104;-58
2023/02/05 04:54:42;;;;;;;13.23;5.82;;;;;;;0.44;66.60;100305.78;5085088;28;20041;-58
2023/02/05 04:57:08;;;;;;;12.38;6.22;;;;;;;0.46;67.22;100305.81;5069457;28;20055;-58
2023/02/05 04:59:33;;;;;;;14.23;6.53;;;;;;;0.49;67.53;100314.38;5078522;28;20044;-60
2023/02/05 05:01:59;;;;;;;13.48;6.10;;;;;;;0.55;67.04;100314.50;5090056;28;20522;-54
2023/02/05 05:04:25;;;;;;;11.32;5.97;;;;;;;0.55;67.00;100311.94;5091737;28;20032;-59
2023/02/05 05:06:51;;;;;;;11.05;5.72;;;;;;;0.57;67.33;100320.50;5069702;28;20075;-57
2023/02/05 05:09:19;;;;;;;11.75;5.68;;;;;;;0.58;67.75;100313.66;5071423;28;20045;-58
2023/02/05 05:11:45;;;;;;;12.43;5.50;;;;;;;0.56;67.31;100315.34;5077213;28;20079;-59
2023/02/05 05:14:11;;;;;;;12.60;6.50;;;;;;;0.53;67.77;100321.28;5090265;28;20036;-58
2023/02/05 05:16:37;;;;;;;12.25;6.15;;;;;;;0.44;67.80;100321.13;5090490;28;20039;-58
2023/02/05 05:19:03;;;;;;;12.07;6.35;;;;;;;0.43;67.67;100327.94;5089917;28;20036;-59
2023/02/05 05:21:29;;;;;;;13.20;6.40;;;;;;;0.48;67.75;100330.56;5091240;28;20093;-59
2023/02/05 05:23:55;;;;;;;14.23;6.72;;;;;;;0.46;67.85;100329.69;5089697;28;20131;-58
2023/02/05 05:26:21;;;;;;;20.13;8.70;;;;;;;0.23;67.78;100293.50;5079062;28;20044;-57
2023/02/05 05:28:46;;;;;;;13.70;7.10;;;;;;;0.35;67.70;100326.97;5074835;28;20051;-57
2023/02/05 05:31:18;;;;;;;11.02;6.03;;;;;;;0.32;67.60;100329.44;5089712;28;20431;-57
2023/02/05 05:33:44;;;;;;;13.05;5.78;;;;;;;0.27;67.81;100338.75;5083572;28;20037;-58
2023/02/05 05:36:11;;;;;;;11.90;6.10;;;;;;;0.21;67.80;100338.63;5076491;28;20036;-57
2023/02/05 05:38:37;;;;;;;9.85;4.90;;;;;;;0.19;67.75;100337.75;5091054;28;20118;-58
2023/02/05 05:43:48;;;;;;;11.25;5.43;;;;;;;0.13;67.40;100341.91;5082766;28;20040;-56
2023/02/05 05:46:22;;;;;;;9.82;4.93;;;;;;;0.10;67.52;100350.38;5090680;28;20085;-59
2023/02/05 05:48:49;;;;;;;11.05;5.78;;;;;;;0.07;67.77;100349.44;5072573;28;20518;-59
2023/02/05 05:51:16;;;;;;;10.32;5.35;;;;;;;-0.10;67.50;100326.13;5089945;28;20040;-58
2023/02/05 05:53:42;;;;;;;12.00;5.85;;;;;;;0.09;67.75;100353.78;5087808;28;20047;-55
2023/02/05 05:56:08;;;;;;;13.73;6.07;;;;;;;0.12;67.60;100351.25;5068820;28;20040;-58
2023/02/05 05:58:34;;;;;;;11.30;6.00;;;;;;;0.14;67.36;100358.97;5091421;28;20032;-58
2023/02/05 06:01:00;;;;;;;13.35;5.88;;;;;;;0.14;67.14;100348.75;5090272;28;20097;-55
2023/02/05 06:03:25;;;;;;;12.88;5.88;;;;;;;0.22;67.38;100359.94;5069966;28;20032;-55
2023/02/05 06:05:51;;;;;;;11.00;5.35;;;;;;;0.24;67.47;100360.84;5078687;28;20491;-56
2023/02/05 06:08:17;;;;;;;13.00;6.07;;;;;;;0.26;67.48;100365.13;5052074;28;20140;-56
2023/02/05 06:10:43;;;;;;;12.13;5.80;;;;;;;0.27;67.49;100360.88;5051372;28;20396;-57
2023/02/05 06:13:09;;;;;;;11.93;6.00;;;;;;;0.32;67.10;100364.38;5070090;28;20044;-57
2023/02/05 06:15:35;;;;;;;11.25;5.55;;;;;;;0.33;67.21;100361.88;5069907;28;20523;-57
2023/02/05 06:18:01;;;;;;;14.05;5.65;;;;;;;0.36;66.86;100363.63;5068510;28;20420;-57
2023/02/05 06:20:27;;;;;;;12.38;6.50;;;;;;;0.37;67.07;100373.00;5069606;28;20075;-57
2023/02/05 06:22:53;;;;;;;14.18;6.72;;;;;;;0.34;66.99;100357.63;5087877;28;20039;-55
2023/02/05 06:25:18;;;;;;;15.07;6.97;;;;;;;0.46;66.67;100368.06;5083814;28;20082;-57
2023/02/05 06:27:44;;;;;;;9.75;5.70;;;;;;;0.48;67.19;100370.63;5069974;28;20085;-58
2023/02/05 06:30:11;;;;;;;13.30;6.20;;;;;;;0.51;67.15;100374.13;5069625;28;20043;-57
2023/02/05 06:32:37;;;;;;;14.60;6.35;;;;;;;0.57;66.51;100375.94;5078648;28;20521;-58
2023/02/05 06:35:03;;;;;;;11.70;6.80;;;;;;;0.43;66.60;100350.09;5069508;28;20037;-56
2023/02/05 06:37:30;;;;;;;10.55;5.53;;;;;;;0.60;66.70;100376.81;5051474;28;20067;-59
2023/02/05 06:39:56;;;;;;;11.65;5.88;;;;;;;0.69;66.71;100381.22;5069417;28;20569;-57
2023/02/05 06:42:22;;;;;;;11.02;5.75;;;;;;;0.71;66.15;100377.88;5072351;28;20044;-58
2023/02/05 06:44:48;;;;;;;11.65;5.72;;;;;;;0.71;66.29;100385.56;5067777;28;20431;-59
2023/02/05 06:47:14;;;;;;;11.07;5.65;;;;;;;0.72;65.96;100394.94;5069276;28;20051;-59
2023/02/05 06:49:40;;;;;;;11.93;5.55;;;;;;;0.56;66.10;100366.53;5069161;28;20040;-56
2023/02/05 06:52:06;;;;;;;10.15;5.18;;;;;;;0.74;65.75;100403.50;5084940;28;20243;-59
2023/02/05 06:54:31;;;;;;;29.20;6.38;;;;;;;0.72;65.64;100401.75;5087238;28;20046;-59
2023/02/05 06:56:57;;;;;;;12.73;6.00;;;;;;;0.54;65.98;100374.16;5087195;28;20427;-58
2023/02/05 06:59:23;;;;;;;15.88;7.32;;;;;;;0.74;65.50;100398.38;5068541;28;20040;-55
2023/02/05 07:01:50;;;;;;;12.25;6.15;;;;;;;0.77;65.48;100400.16;5080023;28;20686;-57
2023/02/05 07:04:15;;;;;;;12.68;6.53;;;;;;;0.42;65.60;100339.00;5089261;28;20428;-58
2023/02/05 07:06:41;;;;;;;14.48;5.93;;;;;;;0.82;65.46;100408.75;5089192;28;20750;-58
2023/02/05 07:09:08;;;;;;;12.82;6.28;;;;;;;0.88;65.59;100403.75;5087972;28;20353;-58
2023/02/05 07:11:34;;;;;;;12.68;6.40;;;;;;;0.92;65.22;100415.75;5070024;28;20462;-57
2023/02/05 07:14:01;;;;;;;11.75;5.90;;;;;;;0.82;65.47;100385.72;5086883;28;20039;-56
2023/02/05 07:16:29;;;;;;;14.20;6.47;;;;;;;0.93;65.05;100407.25;5071041;28;20162;-57
2023/02/05 07:18:55;;;;;;;15.70;6.57;;;;;;;0.84;65.09;100368.66;5068962;28;20036;-59
2023/02/05 07:21:21;;;;;;;12.38;5.88;;;;;;;1.08;64.92;100407.47;5087075;28;20159;-59
2023/02/05 07:23:47;;;;;;;14.00;6.68;;;;;;;1.13;65.13;100412.66;5069064;28;20858;-59
2023/02/05 07:26:15;;;;;;;14.90;6.78;;;;;;;1.18;64.63;100408.47;5081463;28;20074;-59
2023/02/05 07:28:41;;;;;;;13.05;6.93;;;;;;;1.15;64.60;100416.13;5051981;28;20121;-56
2023/02/05 07:31:17;;;;;;;11.70;5.93;;;;;;;1.26;64.73;100422.22;5067687;28;20032;-59
2023/02/05 07:33:47;;;;;;;16.02;6.47;;;;;;;1.36;64.20;100423.25;5068533;28;20066;-58
2023/02/05 07:36:15;;;;;;;9.70;5.68;;;;;;;1.46;64.26;100427.66;5067405;28;20040;-52
2023/02/05 07:38:42;;;;;;;12.43;6.10;;;;;;;1.56;64.09;100427.81;5068229;28;20040;-56
2023/02/05 07:41:10;;;;;;;14.10;7.43;;;;;;;1.77;63.93;100434.06;5069189;28;20040;-54
2023/02/05 07:43:36;;;;;;;12.25;6.25;;;;;;;1.91;63.39;100419.72;5082605;28;20509;-57
2023/02/05 07:46:05;;;;;;;12.55;6.72;;;;;;;1.93;62.84;100402.66;5067349;28;20373;-58
2023/02/05 07:48:31;;;;;;;19.70;7.55;;;;;;;2.12;62.82;100425.09;5067116;28;20508;-55
2023/02/05 07:50:57;;;;;;;15.20;6.30;;;;;;;2.10;62.74;100434.47;5067301;28;20040;-59
2023/02/05 07:53:24;;;;;;;12.50;5.43;;;;;;;2.10;62.26;100432.75;5067129;28;20051;-58
2023/02/05 07:55:49;;;;;;;13.05;5.57;;;;;;;2.13;62.24;100432.81;5072126;28;20139;-58
2023/02/05 07:58:15;;;;;;;10.32;4.95;;;;;;;2.21;61.92;100442.28;5068342;28;20155;-57
2023/02/05 08:00:42;;;;;;;15.57;5.18;;;;;;;2.39;61.91;100445.94;5067061;28;20127;-58
2023/02/05 08:03:08;;;;;;;10.73;5.30;;;;;;;3.30;61.08;100439.03;5072812;28;20453;-56
2023/02/05 08:05:35;;;;;;;9.63;5.07;;;;;;;5.19;58.66;100432.78;5086969;28;20128;-56
2023/02/05 08:08:01;;;;;;;12.27;4.95;;;;;;;5.80;56.73;100438.69;5067143;28;20071;-58
2023/02/05 08:10:27;;;;;;;10.43;4.20;;;;;;;6.12;56.55;100435.19;5068554;28;20049;-57
2023/02/05 08:12:53;;;;;;;9.98;4.50;;;;;;;7.06;55.19;100438.03;5084460;28;20047;-58
2023/02/05 08:15:19;;;;;;;8.32;4.53;;;;;;;8.06;53.77;100436.13;5087312;28;20086;-55
2023/02/05 08:17:46;;;;;;;7.22;3.95;;;;;;;8.89;51.75;100429.00;5072394;28;20043;-58
2023/02/05 08:20:12;;;;;;;10.93;4.43;;;;;;;9.55;50.72;100433.91;5089970;28;20419;-57
2023/02/05 08:22:39;;;;;;;11.30;4.55;;;;;;;10.54;47.75;100436.25;5087688;28;20047;-59
2023/02/05 08:25:07;;;;;;;12.05;8.10;;;;;;;11.33;47.00;100436.09;5090653;28;20148;-59
2023/02/05 08:27:35;;;;;;;9.50;4.72;;;;;;;12.09;44.80;100440.13;5090143;28;20073;-55
2023/02/05 08:30:02;;;;;;;12.45;5.95;;;;;;;12.59;43.77;100428.22;5075141;28;20067;-61
2023/02/05 08:32:29;;;;;;;15.90;6.70;;;;;;;13.21;42.07;100434.97;5090129;28;20089;-59
2023/02/05 08:34:55;;;;;;;22.58;9.25;;;;;;;12.77;41.32;100434.59;5092154;28;20052;-61
2023/02/05 08:37:21;;;;;;;17.40;6.25;;;;;;;13.17;40.47;100434.22;5073654;28;20039;-58
2023/02/05 08:39:49;;;;;;;9.80;4.75;;;;;;;13.40;39.53;100443.88;5079125;28;20036;-54
2023/02/05 08:42:15;;;;;;;10.82;5.80;;;;;;;12.82;39.38;100435.34;5085175;28;20616;-53
2023/02/05 08:44:41;;;;;;;13.38;5.10;;;;;;;12.99;38.73;100440.00;5090515;28;20472;-60
2023/02/05 08:47:07;;;;;;;9.50;4.47;;;;;;;13.37;37.77;100434.41;5091771;28;20046;-55
2023/02/05 08:49:33;;;;;;;11.38;5.00;;;;;;;14.35;36.60;100437.84;5088574;28;20126;-60
2023/02/05 08:51:59;;;;;;;9.23;4.80;;;;;;;15.12;35.38;100436.59;5089172;28;20040;-61
2023/02/05 08:54:25;;;;;;;8.10;5.38;;;;;;;14.88;35.06;100432.31;5089529;28;20047;-62
2023/02/05 08:56:51;;;;;;;9.48;4.97;;;;;;;14.60;35.00;100423.88;5090359;28;20534;-59
2023/02/05 08:59:18;;;;;;;9.77;5.10;;;;;;;13.95;35.15;100417.56;5110568;28;20379;-57
2023/02/05 09:01:44;;;;;;;8.75;4.70;;;;;;;14.32;34.93;100443.19;5068774;28;20032;-55
2023/02/05 09:04:13;;;;;;;8.38;4.93;;;;;;;13.60;35.03;100444.09;5089501;28;20083;-54
2023/02/05 09:06:39;;;;;;;8.23;4.72;;;;;;;12.48;35.90;100445.94;5088833;28;20119;-51
2023/02/05 09:09:05;;;;;;;9.07;5.00;;;;;;;11.41;37.22;100442.81;5065941;28;20576;-56
2023/02/05 09:11:31;;;;;;;6.25;4.13;;;;;;;10.54;38.18;100446.66;5083148;28;20087;-56
2023/02/05 09:13:57;;;;;;;8.93;5.32;;;;;;;9.71;38.68;100422.34;5066720;28;20070;-55
2023/02/05 09:16:24;;;;;;;10.05;5.85;;;;;;;9.46;39.50;100454.84;5069567;28;20036;-60
2023/02/05 09:18:54;;;;;;;14.55;5.63;;;;;;;8.85;39.93;100425.56;5087322;28;20043;-56
2023/02/05 09:21:20;;;;;;;11.20;5.03;;;;;;;8.34;40.70;100390.91;5070873;28;20101;-56
2023/02/05 09:23:47;;;;;;;8.75;4.75;;;;;;;8.30;41.06;100441.06;5088721;28;20059;-54
2023/02/05 09:26:17;;;;;;;11.82;5.82;;;;;;;8.07;41.59;100436.13;5056854;28;20081;-55
2023/02/05 09:28:43;;;;;;;11.20;4.63;;;;;;;8.00;41.85;100444.84;5067184;28;20049;-58
2023/02/05 09:31:12;;;;;;;7.53;4.10;;;;;;;7.81;42.24;100442.47;5070755;28;20040;-57
2023/02/05 09:33:38;;;;;;;6.95;3.45;;;;;;;7.76;42.33;100445.13;5053449;28;20037;-56
2023/02/05 09:36:09;;;;;;;8.93;4.05;;;;;;;7.68;42.28;100448.66;5088464;28;20061;-51
2023/02/05 09:38:35;;;;;;;7.05;3.83;;;;;;;7.57;43.01;100441.88;5087594;28;20519;-50
2023/02/05 09:41:09;;;;;;;7.53;4.22;;;;;;;7.50;43.46;100445.38;5066389;28;20045;-52
2023/02/05 09:43:47;;;;;;;6.45;3.85;;;;;;;7.35;43.46;100448.13;5046618;28;20048;-50
2023/02/05 09:46:44;;;;;;;5.85;3.25;;;;;;;7.20;43.66;100446.53;5069502;28;20040;-52
2023/02/05 09:49:20;;;;;;;9.80;4.82;;;;;;;7.13;44.07;100446.59;5090285;28;20504;-54
2023/02/05 09:51:51;;;;;;;8.45;4.35;;;;;;;7.32;43.74;100449.88;5053247;28;20036;-55
2023/02/05 09:54:27;;;;;;;7.25;3.95;;;;;;;7.36;43.83;100455.00;5066138;28;20459;-53
2023/02/05 09:56:57;;;;;;;8.88;4.07;;;;;;;7.29;43.95;100444.72;5089989;28;20040;-56
2023/02/05 09:59:24;;;;;;;6.85;4.18;;;;;;;6.90;44.20;100410.59;5055633;28;20040;-52
2023/02/05 10:01:54;;;;;;;9.27;4.30;;;;;;;6.97;44.24;100460.50;5091577;28;20172;-52
2023/02/05 10:04:19;;;;;;;;;;;;;;;6.80;44.33;100453.72;5055533;28;20376;-49
2023/02/05 10:07:13;;;;;;;8.60;3.78;;;;;;;6.60;44.91;100465.03;5084117;28;20366;-51
2023/02/05 10:10:01;;;;;;;7.55;3.67;;;;;;;6.29;45.07;100462.63;5079957;28;20074;-53
2023/02/05 10:12:40;;;;;;;7.03;4.07;;;;;;;6.20;45.74;100460.09;5077225;28;20052;-53
2023/02/05 10:15:59;;;;;;;9.03;4.13;;;;;;;6.06;46.19;100461.88;5070194;28;20044;-53
2023/02/05 10:18:49;;;;;;;7.78;4.43;;;;;;;5.88;46.62;100461.91;5016672;28;20076;-55
2023/02/05 10:21:52;;;;;;;8.45;4.20;;;;;;;5.59;46.72;100463.69;4994972;28;20041;-55
2023/02/05 10:24:39;;;;;;;10.07;4.18;;;;;;;5.17;47.47;100459.44;5067919;28;20056;-50
2023/02/05 10:27:17;;;;;;;6.55;3.83;;;;;;;4.77;48.05;100459.38;5085354;28;20036;-48
2023/02/05 10:29:49;;;;;;;7.55;4.03;;;;;;;4.45;49.10;100453.34;5088621;28;20044;-58
2023/02/05 10:32:23;;;;;;;9.95;4.50;;;;;;;3.87;49.54;100400.81;5089970;28;20431;-61
2023/02/05 10:34:55;;;;;;;9.30;4.90;;;;;;;4.00;49.98;100448.88;5088243;28;20044;-56
2023/02/05 10:37:48;;;;;;;6.68;4.10;;;;;;;3.81;50.31;100453.06;5079920;28;20135;-55
2023/02/05 10:40:20;;;;;;;8.40;4.40;;;;;;;3.44;50.85;100428.84;5056760;28;20090;-57
2023/02/05 10:43:10;;;;;;;10.57;4.97;;;;;;;3.46;51.63;100465.69;5102732;28;20047;-58
2023/02/05 10:45:37;;;;;;;10.77;5.13;;;;;;;3.37;51.87;100463.94;5086597;28;20040;-54
2023/02/05 10:48:25;;;;;;;12.48;5.30;;;;;;;3.31;52.15;100466.44;5087344;28;20050;-54
2023/02/05 10:50:59;;;;;;;8.90;4.47;;;;;;;3.37;51.99;100458.78;5088077;28;20040;-58
2023/02/05 10:53:26;;;;;;;11.85;5.03;;;;;;;3.73;51.49;100465.00;5087549;28;20043;-53
2023/02/05 10:55:53;;;;;;;8.48;4.50;;;;;;;4.24;51.22;100441.22;5080766;28;20124;-51
2023/02/05 10:58:47;;;;;;;8.40;4.38;;;;;;;5.60;49.81;100463.66;5091565;28;20039;-58
2023/02/05 11:01:22;;;;;;;9.27;3.88;;;;;;;7.05;47.14;100466.47;5088493;28;20085;-54
2023/02/05 11:03:55;;;;;;;8.68;4.07;;;;;;;6.97;46.81;100461.34;5086832;28;20047;-55
2023/02/05 11:06:24;;;;;;;8.13;4.45;;;;;;;6.76;46.93;100456.31;5088485;28;20075;-52
2023/02/05 11:08:51;;;;;;;9.30;5.32;;;;;;;7.27;46.01;100418.91;5067521;28;20040;-56
2023/02/05 11:11:28;;;;;;;12.60;5.15;;;;;;;7.35;45.81;100460.19;5069044;28;20431;-56
2023/02/05 11:14:04;;;;;;;9.82;4.97;;;;;;;6.93;46.45;100464.84;5082759;28;20039;-55
2023/02/05 11:16:43;;;;;;;11.98;5.10;;;;;;;6.50;46.95;100440.13;5063924;28;20063;-54
2023/02/05 11:19:21;;;;;;;9.20;5.40;;;;;;;6.16;46.98;100450.66;5064115;28;20051;-53
2023/02/05 11:21:50;;;;;;;9.38;5.40;;;;;;;6.06;47.55;100468.75;5085148;28;20055;-55
2023/02/05 11:24:23;;;;;;;8.95;4.65;;;;;;;5.91;47.98;100459.34;5084525;28;20119;-55
2023/02/05 11:26:48;;;;;;;11.48;5.50;;;;;;;5.80;47.59;100458.47;5084805;28;20456;-52
2023/02/05 11:29:19;;;;;;;9.80;5.65;;;;;;;5.55;48.38;100457.66;5085010;28;20039;-57
2023/02/05 11:31:45;;;;;;;8.02;4.45;;;;;;;5.40;48.49;100458.53;5085185;28;20534;-60
2023/02/05 11:34:15;;;;;;;10.23;5.10;;;;;;;5.26;48.62;100462.00;5064320;28;20521;-57
2023/02/05 11:36:55;;;;;;;9.32;5.28;;;;;;;4.82;48.82;100407.88;5082345;28;20059;-59
2023/02/05 11:39:35;;;;;;;7.32;4.93;;;;;;;5.04;48.93;100467.16;5063586;28;20723;-58
2023/02/05 11:42:17;;;;;;;13.20;5.78;;;;;;;4.65;49.95;100439.66;5083270;28;20460;-58
2023/02/05 11:44:55;;;;;;;11.50;5.75;;;;;;;4.63;50.44;100466.22;5068952;28;20084;-54